createdAt,value
2023-04-07T00:01:17.968Z,10.71
2023-04-07T00:03:48.556Z,10.84
2023-04-07T00:06:20.600Z,10.41
2023-04-07T00:08:49.561Z,10.62
2023-04-07T00:11:20.878Z,10.11
2023-04-07T00:13:49.768Z,10.42
2023-04-07T00:16:21.024Z,10.06
2023-04-07T00:18:49.868Z,10.53
2023-04-07T00:21:21.283Z,11.09
2023-04-07T00:23:55.003Z,11.27
2023-04-07T00:26:24.759Z,11.01
2023-04-07T00:28:53.617Z,11.00
2023-04-07T00:31:23.945Z,10.96
2023-04-07T00:33:53.922Z,10.79
2023-04-07T00:36:25.137Z,10.23
2023-04-07T00:38:55.083Z,9.65
2023-04-07T00:41:24.896Z,10.32
2023-04-07T00:43:53.887Z,10.67
2023-04-07T00:46:25.680Z,10.44
2023-04-07T00:48:56.575Z,10.34
2023-04-07T00:51:26.006Z,10.88
2023-04-07T00:53:58.110Z,10.25
2023-04-07T00:56:31.939Z,10.87
2023-04-07T00:59:05.359Z,10.24
2023-04-07T01:01:42.646Z,10.86
2023-04-07T01:04:33.000Z,10.07
2023-04-07T01:07:51.416Z,9.37
2023-04-07T01:10:29.266Z,9.76
2023-04-07T01:13:24.425Z,9.36
2023-04-07T01:16:03.054Z,9.37
2023-04-07T01:18:37.673Z,9.51
2023-04-07T01:21:18.316Z,9.29
2023-04-07T01:24:22.504Z,9.62
2023-04-07T01:26:53.349Z,9.30
2023-04-07T01:29:35.911Z,9.30
2023-04-07T01:32:08.828Z,9.43
2023-04-07T01:34:40.504Z,9.36
2023-04-07T01:37:11.519Z,9.47
2023-04-07T01:39:43.686Z,9.23
2023-04-07T01:42:13.558Z,9.50
2023-04-07T01:44:44.835Z,10.01
2023-04-07T01:47:16.325Z,9.61
2023-04-07T01:49:49.143Z,8.85
2023-04-07T01:52:18.984Z,9.01
2023-04-07T01:54:50.062Z,9.33
2023-04-07T01:57:24.835Z,9.00
2023-04-07T02:00:05.258Z,9.04
2023-04-07T02:02:51.938Z,8.87
2023-04-07T02:05:25.437Z,8.99
2023-04-07T02:08:03.282Z,8.70
2023-04-07T02:10:40.764Z,8.53
2023-04-07T02:13:14.406Z,8.76
2023-04-07T02:15:46.914Z,8.41
2023-04-07T02:18:24.444Z,9.12
2023-04-07T02:20:55.690Z,8.77
2023-04-07T02:23:25.888Z,8.92
2023-04-07T02:26:03.411Z,8.85
2023-04-07T02:28:32.937Z,8.34
2023-04-07T02:31:05.203Z,8.53
2023-04-07T02:33:36.196Z,8.54
2023-04-07T02:36:05.553Z,8.47
2023-04-07T02:38:36.054Z,8.95
2023-04-07T02:41:09.448Z,8.78
2023-04-07T02:43:40.840Z,8.62
2023-04-07T02:46:12.887Z,8.56
2023-04-07T02:48:46.018Z,7.44
2023-04-07T02:51:18.385Z,7.98
2023-04-07T02:53:51.009Z,8.39
2023-04-07T02:56:21.508Z,8.27
2023-04-07T02:58:51.908Z,8.57
2023-04-07T03:01:22.143Z,8.35
2023-04-07T03:03:52.968Z,8.47
2023-04-07T03:06:29.008Z,8.16
2023-04-07T03:09:18.275Z,8.89
2023-04-07T03:11:50.092Z,8.61
2023-04-07T03:14:21.056Z,8.58
2023-04-07T03:16:52.820Z,8.65
2023-04-07T03:19:24.636Z,8.74
2023-04-07T03:21:57.885Z,8.39
2023-04-07T03:24:36.606Z,8.31
2023-04-07T03:27:06.478Z,8.36
2023-04-07T03:29:44.810Z,7.57
2023-04-07T03:32:17.078Z,7.75
2023-04-07T03:34:46.026Z,7.91
2023-04-07T03:37:17.929Z,7.99
2023-04-07T03:39:50.349Z,8.01
2023-04-07T03:42:31.669Z,8.06
2023-04-07T03:45:07.655Z,8.03
2023-04-07T03:47:42.535Z,7.73
2023-04-07T03:50:13.269Z,8.32
2023-04-07T03:52:53.872Z,8.26
2023-04-07T03:55:32.986Z,8.16
2023-04-07T03:58:13.930Z,8.32
2023-04-07T04:00:50.312Z,8.13
2023-04-07T04:03:26.940Z,8.20
2023-04-07T04:06:25.427Z,8.03
2023-04-07T04:09:02.325Z,8.30
2023-04-07T04:11:39.943Z,8.87
2023-04-07T04:14:10.087Z,8.87
2023-04-07T04:16:42.939Z,8.27
2023-04-07T04:19:32.650Z,8.73
2023-04-07T04:22:10.476Z,8.21
2023-04-07T04:24:49.774Z,8.03
2023-04-07T04:27:24.353Z,8.04
2023-04-07T04:30:04.515Z,7.83
2023-04-07T04:32:44.349Z,8.20
2023-04-07T04:35:14.436Z,8.29
2023-04-07T04:38:00.230Z,7.97
2023-04-07T04:40:31.852Z,6.97
2023-04-07T04:43:08.385Z,8.21
2023-04-07T04:45:43.617Z,8.30
2023-04-07T04:48:18.453Z,8.08
2023-04-07T04:50:49.958Z,7.92
2023-04-07T04:53:25.557Z,7.92
2023-04-07T04:56:04.595Z,7.89
2023-04-07T04:58:48.035Z,7.79
2023-04-07T05:01:34.223Z,8.29
2023-04-07T05:04:12.217Z,8.06
2023-04-07T05:06:49.515Z,8.27
2023-04-07T05:09:23.883Z,8.28
2023-04-07T05:11:53.768Z,8.38
2023-04-07T05:14:28.692Z,7.88
2023-04-07T05:17:07.792Z,8.07
2023-04-07T05:19:38.183Z,8.29
2023-04-07T05:22:18.077Z,8.36
2023-04-07T05:24:53.002Z,8.08
2023-04-07T05:27:22.314Z,8.22
2023-04-07T05:30:02.040Z,8.26
2023-04-07T05:32:38.534Z,8.24
2023-04-07T05:35:21.687Z,7.86
2023-04-07T05:38:00.966Z,8.27
2023-04-07T05:40:35.670Z,8.39
2023-04-07T05:43:10.152Z,8.58
2023-04-07T05:45:44.249Z,8.37
2023-04-07T05:48:14.304Z,8.27
2023-04-07T05:50:48.344Z,8.26
2023-04-07T05:53:21.209Z,8.32
2023-04-07T05:55:49.952Z,8.53
2023-04-07T05:58:32.499Z,8.29
2023-04-07T06:01:04.275Z,8.54
2023-04-07T06:03:34.747Z,8.47
2023-04-07T06:06:28.882Z,8.09
2023-04-07T06:09:02.171Z,8.29
2023-04-07T06:11:33.729Z,8.56
2023-04-07T06:14:04.667Z,8.27
2023-04-07T06:16:35.851Z,8.53
2023-04-07T06:19:09.380Z,8.64
2023-04-07T06:21:38.578Z,8.50
2023-04-07T06:24:10.140Z,8.35
2023-04-07T06:26:45.313Z,8.38
2023-04-07T06:29:18.075Z,8.57
2023-04-07T06:31:50.748Z,8.34
2023-04-07T06:34:22.727Z,8.46
2023-04-07T06:36:53.659Z,8.35
2023-04-07T06:39:24.156Z,8.41
2023-04-07T06:41:54.228Z,7.63
2023-04-07T06:44:25.003Z,7.95
2023-04-07T06:46:57.481Z,8.41
2023-04-07T06:49:32.897Z,8.51
2023-04-07T06:52:03.859Z,8.61
2023-04-07T06:54:35.928Z,8.31
2023-04-07T06:57:07.939Z,8.45
2023-04-07T06:59:37.453Z,8.57
2023-04-07T07:02:09.737Z,8.73
2023-04-07T07:04:41.693Z,8.39
2023-04-07T07:07:12.360Z,8.47
2023-04-07T07:09:43.780Z,8.35
2023-04-07T07:12:16.871Z,8.65
2023-04-07T07:14:45.987Z,8.58
2023-04-07T07:17:20.126Z,8.53
2023-04-07T07:19:50.319Z,8.15
2023-04-07T07:22:22.797Z,8.54
2023-04-07T07:24:54.273Z,8.60
2023-04-07T07:27:25.797Z,8.42
2023-04-07T07:30:00.668Z,7.91
2023-04-07T07:32:33.836Z,8.12
2023-04-07T07:35:08.496Z,8.31
2023-04-07T07:37:37.734Z,8.52
2023-04-07T07:40:09.596Z,8.47
2023-04-07T07:42:41.877Z,8.38
2023-04-07T07:45:13.576Z,8.28
2023-04-07T07:47:44.936Z,8.13
2023-04-07T07:50:14.584Z,7.96
2023-04-07T07:52:45.114Z,8.16
2023-04-07T07:55:14.313Z,7.88
2023-04-07T07:57:45.622Z,7.92
2023-04-07T08:00:17.846Z,7.48
2023-04-07T08:02:50.028Z,7.96
2023-04-07T08:05:22.067Z,7.56
2023-04-07T08:07:57.383Z,7.87
2023-04-07T08:10:32.498Z,7.60
2023-04-07T08:13:04.513Z,7.72
2023-04-07T08:15:38.637Z,7.80
2023-04-07T08:18:16.953Z,7.97
2023-04-07T08:20:46.355Z,7.95
2023-04-07T08:23:17.761Z,7.59
2023-04-07T08:25:49.133Z,8.07
2023-04-07T08:28:20.310Z,7.44
2023-04-07T08:30:52.466Z,7.67
2023-04-07T08:33:22.334Z,7.58
2023-04-07T08:35:53.825Z,7.86
2023-04-07T08:38:23.868Z,7.74
2023-04-07T08:41:03.737Z,7.81
2023-04-07T08:43:34.549Z,7.65
2023-04-07T08:46:05.770Z,7.68
2023-04-07T08:48:40.395Z,7.86
2023-04-07T08:51:17.323Z,7.86
2023-04-07T08:53:53.115Z,7.64
2023-04-07T08:56:24.475Z,7.54
2023-04-07T08:58:56.074Z,7.53
2023-04-07T09:01:30.976Z,7.30
2023-04-07T09:04:06.250Z,7.39
2023-04-07T09:06:41.600Z,7.61
2023-04-07T09:09:13.460Z,7.92
2023-04-07T09:11:46.025Z,7.89
2023-04-07T09:14:20.838Z,7.81
2023-04-07T09:16:53.810Z,7.77
2023-04-07T09:19:31.801Z,7.72
2023-04-07T09:22:04.118Z,7.57
2023-04-07T09:24:35.940Z,7.77
2023-04-07T09:27:17.211Z,7.62
2023-04-07T09:29:51.781Z,7.63
2023-04-07T09:32:40.555Z,7.51
2023-04-07T09:35:14.206Z,7.58
2023-04-07T09:37:46.003Z,7.48
2023-04-07T09:40:33.028Z,7.47
2023-04-07T09:43:06.110Z,7.50
2023-04-07T09:45:37.669Z,7.51
2023-04-07T09:48:22.305Z,7.35
2023-04-07T09:51:09.095Z,6.85
2023-04-07T09:53:50.415Z,6.88
2023-04-07T09:56:25.687Z,7.00
2023-04-07T09:58:57.514Z,7.16
2023-04-07T10:01:36.945Z,7.28
2023-04-07T10:04:08.525Z,6.95
2023-04-07T10:06:39.999Z,7.56
2023-04-07T10:09:12.479Z,7.65
2023-04-07T10:11:44.005Z,7.68
2023-04-07T10:14:14.008Z,8.23
2023-04-07T10:16:45.885Z,7.90
2023-04-07T10:19:22.103Z,7.70
2023-04-07T10:21:55.910Z,7.63
2023-04-07T10:24:52.834Z,7.28
2023-04-07T10:27:37.184Z,7.55
2023-04-07T10:30:15.661Z,7.68
2023-04-07T10:32:54.380Z,7.85
2023-04-07T10:35:25.986Z,7.69
2023-04-07T10:38:19.162Z,7.35
2023-04-07T10:40:52.639Z,7.58
2023-04-07T10:43:49.506Z,7.23
2023-04-07T10:46:22.587Z,7.56
2023-04-07T10:49:13.481Z,7.17
2023-04-07T10:51:45.263Z,7.39
2023-04-07T10:54:30.770Z,7.77
2023-04-07T10:57:17.401Z,6.58
2023-04-07T11:00:12.003Z,6.47
2023-04-07T11:02:44.281Z,6.88
2023-04-07T11:05:25.387Z,6.97
2023-04-07T11:08:03.910Z,7.29
2023-04-07T11:10:33.595Z,6.07
2023-04-07T11:13:09.720Z,7.36
2023-04-07T11:15:42.304Z,7.44
2023-04-07T11:18:17.592Z,7.15
2023-04-07T11:20:50.329Z,7.40
2023-04-07T11:23:25.627Z,7.25
2023-04-07T11:26:05.887Z,6.95
2023-04-07T11:28:38.623Z,7.20
2023-04-07T11:31:15.619Z,7.23
2023-04-07T11:33:54.796Z,7.13
2023-04-07T11:36:44.560Z,6.96
2023-04-07T11:39:23.988Z,6.90
2023-04-07T11:41:54.326Z,7.19
2023-04-07T11:44:37.420Z,7.17
2023-04-07T11:47:16.171Z,7.00
2023-04-07T11:49:50.465Z,6.98
2023-04-07T11:52:21.776Z,7.60
2023-04-07T11:54:52.208Z,6.87
2023-04-07T11:57:32.039Z,7.17
2023-04-07T12:00:14.262Z,7.00
2023-04-07T12:02:47.009Z,7.12
2023-04-07T12:05:18.254Z,7.39
2023-04-07T12:08:01.960Z,7.13
2023-04-07T12:10:37.572Z,7.33
2023-04-07T12:13:16.013Z,7.24
2023-04-07T12:15:48.412Z,7.38
2023-04-07T12:18:21.812Z,6.83
2023-04-07T12:20:54.664Z,7.06
2023-04-07T12:23:27.541Z,7.30
2023-04-07T12:26:04.997Z,7.35
2023-04-07T12:28:36.084Z,7.38
2023-04-07T12:31:06.626Z,7.27
2023-04-07T12:33:37.881Z,7.45
2023-04-07T12:36:12.021Z,7.22
2023-04-07T12:38:45.611Z,7.65
2023-04-07T12:41:18.811Z,7.44
2023-04-07T12:43:50.432Z,7.34
2023-04-07T12:46:23.341Z,7.27
2023-04-07T12:48:54.715Z,7.45
2023-04-07T12:51:25.894Z,7.26
2023-04-07T12:53:56.097Z,7.38
2023-04-07T12:56:26.169Z,7.40
2023-04-07T12:58:56.546Z,7.15
2023-04-07T13:01:29.280Z,7.44
2023-04-07T13:04:04.184Z,7.37
2023-04-07T13:06:36.043Z,7.74
2023-04-07T13:09:06.175Z,7.16
2023-04-07T13:16:11.033Z,7.17
2023-04-07T13:19:14.093Z,7.17
2023-04-07T13:22:18.401Z,7.51
2023-04-07T13:26:20.915Z,7.02
2023-04-07T13:28:50.785Z,6.97
2023-04-07T13:31:22.464Z,6.99
2023-04-07T13:33:53.976Z,7.36
2023-04-07T13:36:24.268Z,7.74
2023-04-07T13:38:54.269Z,7.17
2023-04-07T13:41:25.325Z,7.65
2023-04-07T13:43:56.002Z,7.44
2023-04-07T13:46:28.971Z,7.52
2023-04-07T13:49:05.871Z,7.31
2023-04-07T13:52:02.339Z,7.16
2023-04-07T13:54:37.623Z,7.06
2023-04-07T13:57:09.655Z,7.42
2023-04-07T13:59:38.644Z,7.69
2023-04-07T14:02:10.058Z,7.45
2023-04-07T14:04:41.537Z,7.45
2023-04-07T14:07:12.242Z,7.57
2023-04-07T14:09:44.207Z,7.31
2023-04-07T14:12:16.057Z,7.40
2023-04-07T14:14:46.887Z,7.44
2023-04-07T14:17:17.695Z,7.45
2023-04-07T14:20:05.446Z,6.74
2023-04-07T14:22:34.202Z,7.18
2023-04-07T14:25:06.804Z,7.19
2023-04-07T14:27:39.972Z,7.22
2023-04-07T14:30:12.197Z,6.96
2023-04-07T14:32:44.663Z,6.83
2023-04-07T14:35:15.481Z,7.09
2023-04-07T14:37:45.983Z,7.04
2023-04-07T14:40:21.369Z,7.25
2023-04-07T14:43:06.841Z,7.05
2023-04-07T14:45:41.760Z,6.78
2023-04-07T14:48:13.584Z,6.68
2023-04-07T14:50:56.309Z,7.11
2023-04-07T14:53:38.369Z,7.24
2023-04-07T14:56:10.719Z,6.76
2023-04-07T14:58:44.123Z,7.20
2023-04-07T15:01:25.231Z,7.21
2023-04-07T15:03:55.215Z,7.09
2023-04-07T15:06:30.696Z,7.04
2023-04-07T15:09:16.690Z,7.01
2023-04-07T15:11:49.310Z,7.04
2023-04-07T15:19:37.834Z,5.89
2023-04-07T15:22:10.473Z,6.44
2023-04-07T15:24:45.110Z,6.54
2023-04-07T15:27:18.762Z,6.84
2023-04-07T15:29:50.827Z,6.93
2023-04-07T15:32:33.987Z,6.55
2023-04-07T15:35:12.796Z,6.89
2023-04-07T15:42:16.131Z,6.54
2023-04-07T15:44:52.803Z,6.69
2023-04-07T15:47:25.115Z,6.67
2023-04-07T15:49:54.698Z,6.05
2023-04-07T15:52:29.789Z,6.55
2023-04-07T15:55:02.447Z,6.85
2023-04-07T15:57:33.831Z,6.78
2023-04-07T16:00:06.507Z,6.42
2023-04-07T16:02:40.312Z,6.74
2023-04-07T16:05:10.380Z,6.63
2023-04-07T16:07:41.647Z,6.23
2023-04-07T16:10:13.746Z,6.36
2023-04-07T16:12:44.871Z,6.29
2023-04-07T16:15:18.441Z,6.48
2023-04-07T16:17:54.095Z,6.38
2023-04-07T16:20:25.528Z,6.44
2023-04-07T16:23:02.631Z,6.20
2023-04-07T16:25:58.418Z,5.91
2023-04-07T16:28:34.182Z,6.59
2023-04-07T16:31:10.096Z,6.46
2023-04-07T16:33:45.743Z,6.71
2023-04-07T16:36:17.443Z,6.83
2023-04-07T16:38:48.308Z,6.94
2023-04-07T16:41:22.125Z,6.34
2023-04-07T16:43:54.920Z,6.07
2023-04-07T16:46:36.507Z,6.06
2023-04-07T16:49:06.264Z,6.16
2023-04-07T16:51:37.343Z,6.26
2023-04-07T16:54:09.346Z,6.26
2023-04-07T16:56:38.828Z,6.47
2023-04-07T16:59:10.493Z,6.12
2023-04-07T17:01:42.710Z,6.05
2023-04-07T17:04:13.926Z,6.08
2023-04-07T17:06:45.324Z,6.30
2023-04-07T17:09:17.091Z,6.29
2023-04-07T17:11:48.243Z,6.02
2023-04-07T17:14:17.677Z,6.36
2023-04-07T17:16:51.792Z,6.22
2023-04-07T17:19:26.027Z,6.29
2023-04-07T17:21:55.979Z,6.44
2023-04-07T17:24:31.972Z,6.10
2023-04-07T17:27:07.503Z,6.17
2023-04-07T17:29:38.116Z,5.76
2023-04-07T17:32:09.593Z,5.94
2023-04-07T17:34:40.386Z,5.50
2023-04-07T17:37:10.143Z,5.77
2023-04-07T17:39:39.755Z,5.55
2023-04-07T17:42:12.048Z,5.81
2023-04-07T17:44:43.424Z,6.00
2023-04-07T17:47:14.373Z,6.45
2023-04-07T17:49:44.641Z,6.32
2023-04-07T17:52:14.951Z,6.48
2023-04-07T17:54:45.731Z,6.62
2023-04-07T17:57:17.062Z,6.42
2023-04-07T17:59:49.865Z,6.48
2023-04-07T18:02:20.132Z,6.45
2023-04-07T18:04:49.662Z,6.65
2023-04-07T18:07:18.601Z,6.90
2023-04-07T18:09:49.887Z,6.90
2023-04-07T18:12:20.539Z,6.42
2023-04-07T18:14:51.636Z,6.71
2023-04-07T18:17:20.799Z,6.20
2023-04-07T18:19:52.940Z,6.27
2023-04-07T18:22:23.607Z,6.29
2023-04-07T18:24:54.533Z,6.53
2023-04-07T18:27:25.950Z,6.64
2023-04-07T18:30:00.861Z,6.36
2023-04-07T18:32:31.841Z,5.74
2023-04-07T18:35:02.820Z,5.53
2023-04-07T18:37:33.798Z,6.36
2023-04-07T18:40:04.273Z,6.40
2023-04-07T18:42:34.945Z,6.34
2023-04-07T18:45:05.951Z,6.63
2023-04-07T18:47:36.674Z,6.62
2023-04-07T18:50:06.861Z,6.62
2023-04-07T18:52:38.124Z,6.44
2023-04-07T18:55:12.506Z,6.55
2023-04-07T18:57:42.202Z,6.06
2023-04-07T19:00:16.742Z,6.55
2023-04-07T19:02:46.759Z,6.39
2023-04-07T19:05:16.861Z,6.01
2023-04-07T19:07:49.703Z,6.11
2023-04-07T19:10:18.416Z,5.80
2023-04-07T19:12:48.269Z,6.38
2023-04-07T19:15:17.998Z,6.07
2023-04-07T19:17:56.198Z,5.95
2023-04-07T19:20:25.441Z,6.26
2023-04-07T19:23:01.029Z,6.12
2023-04-07T19:26:03.916Z,6.28
2023-04-07T19:28:34.496Z,5.90
2023-04-07T19:31:36.349Z,5.58
2023-04-07T19:34:18.287Z,6.24
2023-04-07T19:36:48.081Z,6.04
2023-04-07T19:39:17.474Z,6.40
2023-04-07T19:41:47.562Z,6.13
2023-04-07T19:44:17.328Z,6.06
2023-04-07T19:46:46.339Z,5.99
2023-04-07T19:49:20.958Z,5.34
2023-04-07T19:51:55.236Z,5.75
2023-04-07T19:54:24.859Z,6.16
2023-04-07T19:57:18.505Z,6.25
2023-04-07T19:59:53.201Z,5.89
2023-04-07T20:02:22.905Z,6.39
2023-04-07T20:04:53.446Z,5.38
2023-04-07T20:07:23.578Z,5.53
2023-04-07T20:09:53.320Z,5.76
2023-04-07T20:12:22.512Z,5.81
2023-04-07T20:14:52.444Z,6.34
2023-04-07T20:17:22.222Z,6.04
2023-04-07T20:19:55.235Z,5.60
2023-04-07T20:22:25.119Z,5.91
2023-04-07T20:24:53.844Z,6.38
2023-04-07T20:27:24.303Z,6.13
2023-04-07T20:29:53.120Z,6.56
2023-04-07T20:32:21.935Z,5.99
2023-04-07T20:34:53.461Z,6.29
2023-04-07T20:37:23.834Z,5.97
2023-04-07T20:39:53.545Z,6.07
2023-04-07T20:42:24.870Z,6.39
2023-04-07T20:53:51.089Z,6.07
2023-04-07T20:56:33.706Z,5.79
2023-04-07T21:01:13.913Z,5.67
2023-04-07T21:04:53.266Z,5.46
2023-04-07T21:07:33.127Z,5.33
2023-04-07T21:10:32.409Z,5.67
2023-04-07T21:13:19.014Z,5.64
2023-04-07T21:16:06.140Z,6.19
2023-04-07T21:18:53.047Z,5.71
2023-04-07T21:21:48.989Z,5.42
2023-04-07T21:24:21.816Z,5.89
2023-04-07T21:27:04.246Z,5.65
2023-04-07T21:29:48.572Z,5.83
2023-04-07T21:32:27.744Z,5.83
2023-04-07T21:35:37.783Z,6.11
2023-04-07T21:38:46.115Z,6.00
2023-04-07T21:41:23.427Z,6.27
2023-04-07T21:44:47.588Z,5.87
2023-04-07T21:47:38.150Z,5.76
2023-04-07T21:50:17.519Z,5.76
2023-04-07T21:52:57.858Z,5.76
2023-04-07T21:59:04.522Z,6.35
2023-04-07T22:17:36.937Z,6.07
2023-04-07T22:20:12.761Z,6.09
2023-04-07T22:22:48.576Z,5.81
2023-04-07T22:26:30.376Z,5.62
2023-04-07T22:29:06.876Z,5.90
2023-04-07T22:31:38.356Z,6.34
2023-04-07T22:34:16.421Z,6.41
2023-04-07T23:51:02.239Z,6.01
2023-04-07T23:53:36.514Z,6.08
2023-04-07T23:56:08.702Z,6.80
2023-04-07T23:58:37.504Z,6.25
